Time;durP1;ratioP1;P1;durP2;ratioP2;P2;SDS_P1;SDS_P2;PMS_P1;PMS_P2;Temp;Humidity;BMP_temperature;BMP_pressure;BME280_temperature;BME280_humidity;BME280_pressure;Samples;Min_cycle;Max_cycle;Signal;HPM_P1;HPM_P2
2023/07/11 00:00:22;;;;;;;65.13;33.90;;;;;;;;;;6115461;23;20042;-64
2023/07/11 00:03:09;;;;;;;54.10;31.25;;;;;;;;;;6117495;23;20026;-67
2023/07/11 00:06:07;;;;;;;48.63;29.67;;;;;;;;;;6115217;23;20033;-63
2023/07/11 00:08:54;;;;;;;53.00;31.63;;;;;;;;;;6116089;23;20026;-60
2023/07/11 00:11:48;;;;;;;47.58;28.70;;;;;;;;;;6116914;23;20029;-60
2023/07/11 00:14:36;;;;;;;88.05;39.33;;;;;;;;;;6115873;23;20034;-60
2023/07/11 00:17:29;;;;;;;56.47;28.90;;;;;;;;;;6116168;23;20022;-60
2023/07/11 00:20:16;;;;;;;81.10;36.65;;;;;;;;;;6116827;23;20109;-60
2023/07/11 00:23:09;;;;;;;64.22;33.17;;;;;;;;;;6117146;23;20034;-53
2023/07/11 00:26:04;;;;;;;50.17;32.42;;;;;;;;;;6116016;23;20025;-52
2023/07/11 00:29:14;;;;;;;61.13;35.20;;;;;;;;;;6116230;23;20081;-49
2023/07/11 00:32:01;;;;;;;58.97;36.53;;;;;;;;;;6117950;23;20771;-58
2023/07/11 00:34:55;;;;;;;49.78;30.50;;;;;;;;;;6116447;23;20106;-55
2023/07/11 00:37:42;;;;;;;44.22;28.15;;;;;;;;;;6117244;23;20022;-52
2023/07/11 00:40:42;;;;;;;40.97;26.80;;;;;;;;;;6118112;23;20057;-48
2023/07/11 00:43:30;;;;;;;37.92;27.10;;;;;;;;;;6120261;23;20022;-49
2023/07/11 00:46:24;;;;;;;49.08;28.65;;;;;;;;;;6120968;23;20549;-50
2023/07/11 00:49:13;;;;;;;46.22;29.50;;;;;;;;;;6119546;23;20021;-50
2023/07/11 00:52:15;;;;;;;55.58;32.10;;;;;;;;;;6121162;23;20030;-53
2023/07/11 00:55:11;;;;;;;58.85;34.30;;;;;;;;;;6119243;23;20053;-54
2023/07/11 00:58:11;;;;;;;46.40;28.70;;;;;;;;;;6120260;23;20437;-56
2023/07/11 01:01:00;;;;;;;59.17;31.23;;;;;;;;;;6119519;23;20354;-50
2023/07/11 01:03:54;;;;;;;34.60;22.30;;;;;;;;;;6120111;23;20101;-59
2023/07/11 01:06:41;;;;;;;46.22;28.27;;;;;;;;;;6119734;23;20018;-59
2023/07/11 01:09:36;;;;;;;43.88;28.00;;;;;;;;;;6117719;23;20381;-59
2023/07/11 01:12:23;;;;;;;42.95;28.85;;;;;;;;;;6120086;23;20481;-59
2023/07/11 01:15:17;;;;;;;43.22;26.95;;;;;;;;;;6119414;23;20084;-59
2023/07/11 01:18:11;;;;;;;47.45;28.83;;;;;;;;;;6118953;23;20416;-59
2023/07/11 01:20:58;;;;;;;39.45;24.90;;;;;;;;;;6119603;23;20092;-54
2023/07/11 01:23:52;;;;;;;42.58;27.35;;;;;;;;;;6117686;23;20033;-57
2023/07/11 01:26:39;;;;;;;36.67;25.20;;;;;;;;;;6118696;23;20026;-57
2023/07/11 01:29:33;;;;;;;40.10;26.65;;;;;;;;;;6117398;23;20026;-59
2023/07/11 01:32:20;;;;;;;43.78;27.02;;;;;;;;;;6120126;23;20026;-57
2023/07/11 01:35:14;;;;;;;35.28;23.85;;;;;;;;;;6119996;23;20085;-54
2023/07/11 01:38:08;;;;;;;48.47;28.15;;;;;;;;;;6120457;23;20497;-57
2023/07/11 01:41:02;;;;;;;41.10;25.48;;;;;;;;;;6120427;23;20018;-57
2023/07/11 01:43:49;;;;;;;45.17;28.70;;;;;;;;;;6119555;23;20064;-57
2023/07/11 01:46:43;;;;;;;49.70;26.15;;;;;;;;;;6120251;23;20050;-56
2023/07/11 01:49:30;;;;;;;47.45;28.65;;;;;;;;;;6120341;23;20034;-67
2023/07/11 01:52:24;;;;;;;40.72;27.17;;;;;;;;;;6117938;23;20073;-67
2023/07/11 01:55:11;;;;;;;33.10;21.00;;;;;;;;;;6117709;23;20491;-67
2023/07/11 01:58:11;;;;;;;50.97;28.25;;;;;;;;;;6118471;23;20025;-58
2023/07/11 02:00:59;;;;;;;73.15;33.78;;;;;;;;;;6119609;23;20475;-55
2023/07/11 02:03:53;;;;;;;83.45;34.53;;;;;;;;;;6117577;23;20042;-57
2023/07/11 02:06:40;;;;;;;52.85;30.60;;;;;;;;;;6117377;23;20022;-56
2023/07/11 02:09:34;;;;;;;53.47;31.05;;;;;;;;;;6115787;23;20030;-56
2023/07/11 02:12:21;;;;;;;45.75;27.85;;;;;;;;;;6117298;23;20425;-56
2023/07/11 02:15:20;;;;;;;41.08;25.10;;;;;;;;;;6118322;23;20093;-56
2023/07/11 02:18:08;;;;;;;36.15;24.92;;;;;;;;;;6119127;23;20030;-57
2023/07/11 02:21:02;;;;;;;52.40;29.58;;;;;;;;;;6117345;23;20022;-54
2023/07/11 02:23:49;;;;;;;56.45;29.02;;;;;;;;;;6115096;23;20022;-52
2023/07/11 02:26:43;;;;;;;51.22;29.63;;;;;;;;;;6117474;23;20485;-59
2023/07/11 02:29:30;;;;;;;38.40;26.10;;;;;;;;;;6118121;23;20563;-62
2023/07/11 02:32:24;;;;;;;56.35;30.83;;;;;;;;;;6117473;23;20096;-62
2023/07/11 02:35:11;;;;;;;49.75;29.73;;;;;;;;;;6116915;23;20017;-63
2023/07/11 02:38:04;;;;;;;49.75;29.60;;;;;;;;;;6117132;23;20502;-63
2023/07/11 02:40:59;;;;;;;75.55;35.42;;;;;;;;;;6118711;23;20026;-63
2023/07/11 02:43:49;;;;;;;60.60;32.50;;;;;;;;;;6116810;23;20026;-57
2023/07/11 02:46:43;;;;;;;54.45;30.05;;;;;;;;;;6117415;23;20022;-55
2023/07/11 02:49:30;;;;;;;56.25;31.05;;;;;;;;;;6115995;23;20359;-56
2023/07/11 02:52:24;;;;;;;57.40;30.35;;;;;;;;;;6116871;23;20436;-55
2023/07/11 02:55:11;;;;;;;52.42;29.70;;;;;;;;;;6116829;23;20050;-57
2023/07/11 02:58:11;;;;;;;52.30;30.08;;;;;;;;;;6117490;23;20029;-58
2023/07/11 03:01:00;;;;;;;53.10;28.33;;;;;;;;;;6116385;23;20026;-58
2023/07/11 03:03:54;;;;;;;56.13;30.85;;;;;;;;;;6116053;23;20026;-56
2023/07/11 03:06:41;;;;;;;45.78;28.02;;;;;;;;;;6115303;23;20026;-58
2023/07/11 03:09:37;;;;;;;56.45;28.65;;;;;;;;;;6116714;23;20088;-58
2023/07/11 03:12:22;;;;;;;28.60;21.27;;;;;;;;;;6117915;23;20073;-62
2023/07/11 03:15:16;;;;;;;38.47;24.30;;;;;;;;;;6118157;23;20342;-63
2023/07/11 03:18:10;;;;;;;39.10;25.85;;;;;;;;;;6116210;23;20026;-63
2023/07/11 03:21:04;;;;;;;44.35;25.48;;;;;;;;;;6116271;23;20026;-63
2023/07/11 03:23:51;;;;;;;41.97;26.77;;;;;;;;;;6116764;23;20089;-63
2023/07/11 03:26:46;;;;;;;49.65;28.13;;;;;;;;;;6114909;23;20040;-61
2023/07/11 03:29:33;;;;;;;46.63;24.13;;;;;;;;;;6116020;23;20092;-61
2023/07/11 03:32:27;;;;;;;34.55;22.10;;;;;;;;;;6118077;23;20028;-61
2023/07/11 03:35:14;;;;;;;41.40;26.25;;;;;;;;;;6117425;23;20032;-61
2023/07/11 03:38:08;;;;;;;40.30;24.15;;;;;;;;;;6117937;23;20022;-61
2023/07/11 03:40:55;;;;;;;37.55;24.13;;;;;;;;;;6118130;23;20030;-57
2023/07/11 03:43:49;;;;;;;44.13;25.77;;;;;;;;;;6118142;23;20054;-56
2023/07/11 03:46:36;;;;;;;40.53;24.73;;;;;;;;;;6117759;23;20062;-58
2023/07/11 03:49:30;;;;;;;28.67;20.05;;;;;;;;;;6117805;23;20022;-57
2023/07/11 03:52:24;;;;;;;37.40;22.90;;;;;;;;;;6118485;23;20092;-59
2023/07/11 03:55:18;;;;;;;36.50;24.85;;;;;;;;;;6117396;23;20488;-58
2023/07/11 03:58:18;;;;;;;24.83;18.02;;;;;;;;;;6117588;23;20552;-57
2023/07/11 04:01:12;;;;;;;30.83;20.33;;;;;;;;;;6118197;23;20460;-55
2023/07/11 04:03:59;;;;;;;39.47;23.85;;;;;;;;;;6116699;23;20077;-57
2023/07/11 04:06:53;;;;;;;35.75;21.48;;;;;;;;;;6116187;23;20026;-58
2023/07/11 04:09:40;;;;;;;29.33;20.08;;;;;;;;;;6116667;23;20650;-57
2023/07/11 04:12:34;;;;;;;38.85;22.90;;;;;;;;;;6117095;23;20030;-56
2023/07/11 04:15:21;;;;;;;40.88;24.63;;;;;;;;;;6115908;23;20022;-58
2023/07/11 04:18:15;;;;;;;37.58;22.65;;;;;;;;;;6116574;23;20085;-56
2023/07/11 04:21:02;;;;;;;29.90;19.77;;;;;;;;;;6116172;23;20084;-62
2023/07/11 04:23:56;;;;;;;34.08;20.08;;;;;;;;;;6114557;23;20051;-55
2023/07/11 04:26:43;;;;;;;37.83;20.83;;;;;;;;;;6116456;23;20085;-54
2023/07/11 04:29:37;;;;;;;26.58;18.60;;;;;;;;;;6116752;23;20029;-55
2023/07/11 04:32:24;;;;;;;23.52;13.35;;;;;;;;;;6115756;23;20026;-57
2023/07/11 04:35:18;;;;;;;29.88;19.95;;;;;;;;;;6115717;23;20030;-55
2023/07/11 04:38:05;;;;;;;33.63;20.20;;;;;;;;;;6118174;23;20089;-67
2023/07/11 04:41:02;;;;;;;33.80;17.48;;;;;;;;;;6115587;23;20026;-68
2023/07/11 04:43:49;;;;;;;30.35;18.75;;;;;;;;;;6116648;23;20026;-68
2023/07/11 04:46:43;;;;;;;35.38;20.27;;;;;;;;;;6114502;23;20030;-68
2023/07/11 04:49:30;;;;;;;31.10;16.63;;;;;;;;;;6115841;23;20448;-57
2023/07/11 04:52:25;;;;;;;25.85;15.70;;;;;;;;;;6116290;23;20030;-54
2023/07/11 04:55:13;;;;;;;29.08;17.13;;;;;;;;;;6114848;23;20402;-55
2023/07/11 04:58:12;;;;;;;23.05;13.80;;;;;;;;;;6115901;23;20026;-57
2023/07/11 05:01:04;;;;;;;22.63;13.50;;;;;;;;;;6115533;23;20026;-56
2023/07/11 05:03:58;;;;;;;20.95;11.20;;;;;;;;;;6116109;23;20037;-57
2023/07/11 05:06:47;;;;;;;20.67;13.35;;;;;;;;;;6117003;23;20022;-61
2023/07/11 05:09:39;;;;;;;23.88;14.77;;;;;;;;;;6114427;23;20053;-61
2023/07/11 05:12:26;;;;;;;16.25;10.55;;;;;;;;;;6116688;23;20032;-61
2023/07/11 05:15:20;;;;;;;21.48;13.30;;;;;;;;;;6115583;23;20022;-62
2023/07/11 05:18:14;;;;;;;18.13;10.15;;;;;;;;;;6115520;23;20478;-57
2023/07/11 05:21:12;;;;;;;15.65;8.60;;;;;;;;;;6115340;23;20050;-55
2023/07/11 05:24:01;;;;;;;20.63;11.13;;;;;;;;;;6115366;23;20022;-57
2023/07/11 05:26:53;;;;;;;16.00;9.38;;;;;;;;;;6116638;23;20417;-56
2023/07/11 05:29:40;;;;;;;17.13;8.98;;;;;;;;;;6116779;23;20022;-55
2023/07/11 05:32:34;;;;;;;17.52;9.75;;;;;;;;;;6116702;23;20018;-56
2023/07/11 05:35:21;;;;;;;15.02;8.75;;;;;;;;;;6119764;23;20033;-59
2023/07/11 05:38:15;;;;;;;17.98;9.68;;;;;;;;;;6119062;23;20029;-59
2023/07/11 05:41:09;;;;;;;18.33;8.05;;;;;;;;;;6119461;23;20548;-59
2023/07/11 05:44:03;;;;;;;24.92;10.77;;;;;;;;;;6117567;23;20026;-59
2023/07/11 05:46:50;;;;;;;17.52;10.48;;;;;;;;;;6116492;23;20426;-58
2023/07/11 05:49:44;;;;;;;22.45;11.60;;;;;;;;;;6117911;23;20033;-56
2023/07/11 05:52:31;;;;;;;19.70;10.73;;;;;;;;;;6117540;23;20026;-57
2023/07/11 05:55:25;;;;;;;15.57;9.40;;;;;;;;;;6115992;23;20084;-55
2023/07/11 05:58:19;;;;;;;16.55;7.45;;;;;;;;;;6112044;23;20445;-56
2023/07/11 06:01:24;;;;;;;20.73;9.43;;;;;;;;;;6115102;23;20026;-58
2023/07/11 06:04:12;;;;;;;16.15;8.05;;;;;;;;;;6119062;23;20080;-57
2023/07/11 06:07:06;;;;;;;15.70;6.78;;;;;;;;;;6117729;23;20022;-56
2023/07/11 06:09:53;;;;;;;14.65;6.78;;;;;;;;;;6115430;23;20030;-56
2023/07/11 06:12:47;;;;;;;13.18;7.68;;;;;;;;;;6119749;23;20029;-58
2023/07/11 06:15:41;;;;;;;19.90;7.43;;;;;;;;;;6117765;23;20029;-57
2023/07/11 06:18:28;;;;;;;18.17;6.65;;;;;;;;;;6119693;23;20025;-59
2023/07/11 06:21:22;;;;;;;14.80;6.53;;;;;;;;;;6116518;23;20026;-60
2023/07/11 06:24:16;;;;;;;13.75;6.80;;;;;;;;;;6117452;23;20045;-59
2023/07/11 06:27:10;;;;;;;14.13;6.82;;;;;;;;;;6119494;23;20018;-59
2023/07/11 06:30:04;;;;;;;15.82;6.80;;;;;;;;;;6117287;23;20026;-59
2023/07/11 06:32:58;;;;;;;10.38;5.05;;;;;;;;;;6118068;23;20030;-58
2023/07/11 06:35:52;;;;;;;13.32;6.32;;;;;;;;;;6115245;23;20025;-58
2023/07/11 06:38:46;;;;;;;12.77;5.55;;;;;;;;;;6116867;23;20022;-57
2023/07/11 06:41:40;;;;;;;14.13;5.35;;;;;;;;;;6116650;23;20861;-56
2023/07/11 06:44:27;;;;;;;13.45;6.13;;;;;;;;;;6114134;23;20037;-71
2023/07/11 06:47:21;;;;;;;9.82;4.65;;;;;;;;;;6115440;23;20022;-64
2023/07/11 06:50:15;;;;;;;12.30;5.50;;;;;;;;;;6116726;23;20046;-65
2023/07/11 06:53:09;;;;;;;13.65;4.50;;;;;;;;;;6118089;23;20022;-65
2023/07/11 06:55:57;;;;;;;9.23;4.28;;;;;;;;;;6116859;23;20022;-65
2023/07/11 06:58:57;;;;;;;11.52;5.13;;;;;;;;;;6116520;23;20025;-65
2023/07/11 07:01:44;;;;;;;9.38;4.65;;;;;;;;;;6116986;23;20022;-63
2023/07/11 07:04:38;;;;;;;13.40;4.55;;;;;;;;;;6117332;23;20026;-64
2023/07/11 07:07:25;;;;;;;15.82;4.60;;;;;;;;;;6114419;23;20022;-62
2023/07/11 07:10:31;;;;;;;10.27;3.92;;;;;;;;;;6117116;23;20441;-69
2023/07/11 07:13:20;;;;;;;9.15;3.88;;;;;;;;;;6118917;23;20034;-61
2023/07/11 07:16:32;;;;;;;10.13;3.67;;;;;;;;;;6115825;23;20154;-61
2023/07/11 07:19:18;;;;;;;13.30;4.55;;;;;;;;;;6116315;23;20545;-61
2023/07/11 07:22:13;;;;;;;10.18;3.95;;;;;;;;;;6117820;23;20092;-61
2023/07/11 07:25:03;;;;;;;9.35;4.15;;;;;;;;;;6116916;23;20026;-62
2023/07/11 07:27:58;;;;;;;11.70;3.78;;;;;;;;;;6117187;23;20073;-62
2023/07/11 07:30:46;;;;;;;13.32;4.70;;;;;;;;;;6114965;23;20363;-59
2023/07/11 07:33:39;;;;;;;9.25;4.25;;;;;;;;;;6116241;23;20401;-57
2023/07/11 07:36:26;;;;;;;10.05;4.10;;;;;;;;;;6117938;23;20081;-60
2023/07/11 07:39:20;;;;;;;12.95;3.88;;;;;;;;;;6116770;23;20577;-61
2023/07/11 07:42:07;;;;;;;11.98;5.00;;;;;;;;;;6116284;23;20030;-65
2023/07/11 07:45:01;;;;;;;10.00;4.28;;;;;;;;;;6116711;23;20437;-66
2023/07/11 07:47:48;;;;;;;8.73;3.70;;;;;;;;;;6116429;23;20072;-65
2023/07/11 07:50:42;;;;;;;7.00;3.15;;;;;;;;;;6115415;23;20088;-64
2023/07/11 07:53:29;;;;;;;11.82;3.17;;;;;;;;;;6116585;23;20370;-65
2023/07/11 07:56:24;;;;;;;10.88;3.67;;;;;;;;;;6115195;23;20022;-64
2023/07/11 07:59:18;;;;;;;12.73;4.32;;;;;;;;;;6116195;23;20080;-65
2023/07/11 08:02:12;;;;;;;10.23;3.53;;;;;;;;;;6106343;23;20060;-64
2023/07/11 08:04:59;;;;;;;18.35;4.38;;;;;;;;;;6115792;23;20028;-64
2023/07/11 08:07:53;;;;;;;15.25;4.63;;;;;;;;;;6116443;23;20026;-57
2023/07/11 08:10:47;;;;;;;20.42;3.65;;;;;;;;;;6115124;23;20026;-73
2023/07/11 08:13:41;;;;;;;13.88;4.00;;;;;;;;;;6111573;23;20563;-73
2023/07/11 08:16:29;;;;;;;10.55;4.15;;;;;;;;;;6108503;23;20360;-74
2023/07/11 08:19:23;;;;;;;10.02;3.67;;;;;;;;;;6114427;23;20402;-73
2023/07/11 08:22:14;;;;;;;13.75;3.80;;;;;;;;;;6112213;23;20139;-72
2023/07/11 08:25:14;;;;;;;8.80;3.05;;;;;;;;;;6116112;23;20029;-68
2023/07/11 08:28:01;;;;;;;10.10;3.90;;;;;;;;;;6115906;23;20026;-56
2023/07/11 08:30:55;;;;;;;12.60;3.53;;;;;;;;;;6116528;23;20030;-57
2023/07/11 08:33:42;;;;;;;10.35;3.53;;;;;;;;;;6116163;23;20017;-55
2023/07/11 08:36:39;;;;;;;10.50;3.97;;;;;;;;;;6115579;23;20022;-60
2023/07/11 08:39:26;;;;;;;15.70;4.18;;;;;;;;;;6117423;23;20018;-56
2023/07/11 08:42:34;;;;;;;10.57;3.92;;;;;;;;;;6114805;23;20034;-57
2023/07/11 08:45:27;;;;;;;10.60;3.63;;;;;;;;;;6114062;23;20572;-55
2023/07/11 08:48:44;;;;;;;12.73;3.92;;;;;;;;;;6115927;23;20021;-54
2023/07/11 08:51:35;;;;;;;10.88;3.20;;;;;;;;;;6115242;23;20029;-56
2023/07/11 08:54:45;;;;;;;10.40;3.80;;;;;;;;;;6115169;23;20072;-60
2023/07/11 08:57:45;;;;;;;9.73;3.92;;;;;;;;;;6114283;23;20030;-60
2023/07/11 09:00:47;;;;;;;8.25;3.45;;;;;;;;;;6112129;23;20385;-60
2023/07/11 09:03:46;;;;;;;7.45;3.58;;;;;;;;;;6118008;23;20108;-63
2023/07/11 09:06:41;;;;;;;9.07;3.38;;;;;;;;;;6118373;23;20136;-58
2023/07/11 09:09:35;;;;;;;10.25;3.45;;;;;;;;;;6115628;23;20026;-69
2023/07/11 09:12:28;;;;;;;7.10;3.05;;;;;;;;;;6118058;23;20120;-69
2023/07/11 09:15:48;;;;;;;8.32;3.28;;;;;;;;;;6116848;23;20104;-69
2023/07/11 09:18:47;;;;;;;11.95;3.90;;;;;;;;;;6117810;23;20576;-68
2023/07/11 09:21:47;;;;;;;6.97;2.80;;;;;;;;;;6117961;23;20500;-69
2023/07/11 09:24:37;;;;;;;10.88;3.35;;;;;;;;;;6118161;23;20433;-59
2023/07/11 09:27:37;;;;;;;6.45;3.10;;;;;;;;;;6117560;23;20296;-59
2023/07/11 09:30:27;;;;;;;7.03;3.20;;;;;;;;;;6116350;23;20444;-59
2023/07/11 09:33:22;;;;;;;8.35;3.40;;;;;;;;;;6117064;23;20025;-65
2023/07/11 09:36:20;;;;;;;13.48;3.47;;;;;;;;;;6115778;23;20028;-59
2023/07/11 09:39:22;;;;;;;10.25;3.30;;;;;;;;;;6117952;23;20474;-59
2023/07/11 09:42:20;;;;;;;10.05;3.25;;;;;;;;;;6114398;23;20018;-59
2023/07/11 09:45:12;;;;;;;9.20;3.30;;;;;;;;;;6118537;23;20022;-58
2023/07/11 09:48:20;;;;;;;9.00;3.53;;;;;;;;;;6118454;23;20018;-58
2023/07/11 09:51:24;;;;;;;9.95;3.28;;;;;;;;;;6114989;23;20560;-59
2023/07/11 09:54:18;;;;;;;11.88;3.10;;;;;;;;;;6115857;23;20093;-58
2023/07/11 09:57:17;;;;;;;10.50;3.55;;;;;;;;;;6112946;23;20030;-59
2023/07/11 10:00:18;;;;;;;10.45;3.22;;;;;;;;;;6116320;23;20440;-56
2023/07/11 10:03:05;;;;;;;10.48;3.13;;;;;;;;;;6117253;23;20409;-67
2023/07/11 10:05:59;;;;;;;13.55;3.42;;;;;;;;;;6113957;23;20029;-52
2023/07/11 10:08:51;;;;;;;9.90;3.47;;;;;;;;;;6115502;23;20028;-54
2023/07/11 10:11:59;;;;;;;8.07;3.50;;;;;;;;;;6112918;23;20344;-55
2023/07/11 10:14:47;;;;;;;6.95;3.38;;;;;;;;;;6114780;23;20652;-52
2023/07/11 10:17:43;;;;;;;9.40;3.25;;;;;;;;;;6115485;23;20034;-51
2023/07/11 10:20:31;;;;;;;13.93;3.53;;;;;;;;;;6115051;23;20105;-67
2023/07/11 10:23:25;;;;;;;10.80;3.30;;;;;;;;;;6113977;23;20089;-67
2023/07/11 10:26:20;;;;;;;9.02;3.40;;;;;;;;;;6115847;23;20084;-66
2023/07/11 10:29:16;;;;;;;12.77;3.40;;;;;;;;;;6116501;23;20022;-58
2023/07/11 10:32:06;;;;;;;7.38;3.60;;;;;;;;;;6116916;23;20081;-49
2023/07/11 10:35:01;;;;;;;13.73;3.65;;;;;;;;;;6116358;23;20030;-56
2023/07/11 10:38:00;;;;;;;13.50;3.65;;;;;;;;;;6115641;23;20030;-58
2023/07/11 10:40:57;;;;;;;9.25;3.40;;;;;;;;;;6115133;23;20022;-58
2023/07/11 10:43:44;;;;;;;12.48;3.95;;;;;;;;;;6116138;23;20100;-58
2023/07/11 10:46:45;;;;;;;9.10;3.60;;;;;;;;;;6114312;23;20026;-59
2023/07/11 10:49:46;;;;;;;17.20;3.92;;;;;;;;;;6116159;23;20025;-57
2023/07/11 10:52:52;;;;;;;15.57;3.53;;;;;;;;;;6116149;23;20034;-52
2023/07/11 10:55:44;;;;;;;8.55;3.45;;;;;;;;;;6114703;23;20026;-58
2023/07/11 10:58:45;;;;;;;7.40;3.40;;;;;;;;;;6117079;23;20096;-59
2023/07/11 11:01:50;;;;;;;11.30;3.60;;;;;;;;;;6116672;23;20317;-51
2023/07/11 11:05:04;;;;;;;19.42;4.03;;;;;;;;;;6116236;23;20022;-57
2023/07/11 11:08:02;;;;;;;12.43;3.83;;;;;;;;;;6116925;23;20028;-56
2023/07/11 11:11:16;;;;;;;12.73;4.18;;;;;;;;;;6116601;23;20472;-58
2023/07/11 15:36:41;;;;;;;6.68;2.38;;;;;;;;;;5745141;23;8237685;-89
2023/07/11 15:39:16;;;;;;;5.78;1.85;;;;;;;;;;6091415;23;20030;-91
2023/07/11 15:41:54;;;;;;;9.50;2.58;;;;;;;;;;6090071;23;20022;-89
2023/07/11 15:44:27;;;;;;;5.32;2.10;;;;;;;;;;6091202;23;20026;-89
2023/07/11 15:47:01;;;;;;;6.63;2.10;;;;;;;;;;6089494;23;20018;-89
2023/07/11 15:49:28;;;;;;;6.38;2.28;;;;;;;;;;6091894;23;20033;-88
2023/07/11 15:51:55;;;;;;;7.75;2.42;;;;;;;;;;6088234;23;20105;-89
2023/07/11 15:54:28;;;;;;;8.60;2.30;;;;;;;;;;6062318;23;20089;-89
2023/07/11 15:56:56;;;;;;;7.72;2.53;;;;;;;;;;6061591;23;20030;-90
2023/07/11 15:59:30;;;;;;;4.55;2.05;;;;;;;;;;6061585;23;20034;-89
2023/07/11 16:01:57;;;;;;;5.78;2.03;;;;;;;;;;6061595;23;20029;-89
2023/07/11 16:04:31;;;;;;;4.60;2.00;;;;;;;;;;6062230;23;20105;-88
2023/07/11 16:07:10;;;;;;;8.25;2.30;;;;;;;;;;6061832;23;20026;-88
2023/07/11 16:09:37;;;;;;;8.15;2.40;;;;;;;;;;6062564;23;20027;-89
2023/07/11 16:12:05;;;;;;;6.45;2.40;;;;;;;;;;6062615;23;20082;-89
2023/07/11 16:14:39;;;;;;;5.13;2.42;;;;;;;;;;6057544;23;20135;-89
2023/07/11 16:17:19;;;;;;;7.10;2.55;;;;;;;;;;6061798;23;20106;-89
2023/07/11 16:19:48;;;;;;;7.38;3.00;;;;;;;;;;6062133;23;20521;-89
2023/07/11 16:22:23;;;;;;;6.10;2.08;;;;;;;;;;6061761;23;20054;-88
2023/07/11 16:24:50;;;;;;;7.00;2.78;;;;;;;;;;6061297;23;20026;-88
2023/07/11 16:27:18;;;;;;;6.78;2.30;;;;;;;;;;6060811;23;20023;-89
2023/07/11 16:29:51;;;;;;;7.18;2.60;;;;;;;;;;6062247;23;20030;-89
2023/07/11 16:32:19;;;;;;;8.00;3.10;;;;;;;;;;6061809;23;20026;-89
2023/07/11 16:34:46;;;;;;;7.10;2.70;;;;;;;;;;6062273;23;20023;-89
2023/07/11 16:37:26;;;;;;;6.20;2.40;;;;;;;;;;6062590;23;20360;-90
2023/07/11 16:39:54;;;;;;;7.97;2.40;;;;;;;;;;6062853;23;20122;-89
2023/07/11 16:42:34;;;;;;;7.07;2.22;;;;;;;;;;6061061;23;20026;-90
2023/07/11 16:45:01;;;;;;;6.15;2.30;;;;;;;;;;6060771;23;20224;-89
2023/07/11 16:47:36;;;;;;;5.25;2.08;;;;;;;;;;6060159;23;20110;-89
2023/07/11 16:50:03;;;;;;;4.40;2.10;;;;;;;;;;6062240;23;20452;-88
2023/07/11 16:52:30;;;;;;;3.50;2.08;;;;;;;;;;6058797;23;20034;-89
2023/07/11 16:55:09;;;;;;;9.63;2.53;;;;;;;;;;6062742;23;20038;-89
2023/07/11 16:57:36;;;;;;;8.07;2.20;;;;;;;;;;6061413;23;20026;-89
2023/07/11 17:00:04;;;;;;;6.90;2.83;;;;;;;;;;6061147;23;20488;-90
2023/07/11 17:02:38;;;;;;;6.05;2.28;;;;;;;;;;6060551;23;20495;-89
2023/07/11 17:05:05;;;;;;;;;;;;;;;;;;6063016;23;20525;-90
2023/07/11 17:07:40;;;;;;;6.55;2.15;;;;;;;;;;6064499;23;19964;-90
2023/07/11 17:10:08;;;;;;;6.80;2.38;;;;;;;;;;6061417;23;20023;-89
2023/07/11 17:12:36;;;;;;;9.70;2.63;;;;;;;;;;6062063;23;20027;-88
2023/07/11 17:15:11;;;;;;;11.07;2.42;;;;;;;;;;6061301;23;20559;-89
2023/07/11 17:17:39;;;;;;;7.53;2.40;;;;;;;;;;6062801;23;20566;-89
2023/07/11 17:20:17;;;;;;;7.38;2.15;;;;;;;;;;6063427;23;20038;-90
2023/07/11 17:22:44;;;;;;;6.65;3.08;;;;;;;;;;6060632;23;20019;-90
2023/07/11 17:25:12;;;;;;;5.97;2.45;;;;;;;;;;6063440;23;20022;-89
2023/07/11 17:27:49;;;;;;;7.80;2.38;;;;;;;;;;6063805;23;20082;-90
2023/07/11 17:30:18;;;;;;;7.13;2.20;;;;;;;;;;6063640;23;20029;-90
2023/07/11 17:32:52;;;;;;;7.57;2.20;;;;;;;;;;6062025;23;20031;-89
2023/07/11 17:35:31;;;;;;;6.57;2.38;;;;;;;;;;6062413;23;20034;-90
2023/07/11 17:38:06;;;;;;;10.02;3.13;;;;;;;;;;6061509;23;20031;-89
2023/07/11 17:40:33;;;;;;;5.78;2.38;;;;;;;;;;6064556;23;20089;-92
2023/07/11 17:43:00;;;;;;;8.27;2.30;;;;;;;;;;6063526;23;20023;-89
2023/07/11 17:45:36;;;;;;;5.65;2.20;;;;;;;;;;6061227;23;20031;-89
2023/07/11 17:48:14;;;;;;;7.85;2.40;;;;;;;;;;6070430;23;20086;-90
2023/07/11 17:50:50;;;;;;;7.85;2.38;;;;;;;;;;6060772;23;20069;-89
2023/07/11 17:53:18;;;;;;;7.30;2.20;;;;;;;;;;6058607;23;20102;-90
2023/07/11 17:55:51;;;;;;;9.45;2.97;;;;;;;;;;6061262;23;20046;-89
2023/07/11 17:58:21;;;;;;;6.40;2.55;;;;;;;;;;6060249;23;20070;-89
2023/07/11 18:00:57;;;;;;;7.72;2.45;;;;;;;;;;6059639;23;20461;-89
2023/07/11 18:03:24;;;;;;;5.43;2.25;;;;;;;;;;6061894;23;20031;-89
2023/07/11 18:05:52;;;;;;;5.95;2.60;;;;;;;;;;6061019;23;20094;-87
2023/07/11 18:08:28;;;;;;;6.80;2.35;;;;;;;;;;6059741;23;20464;-88
2023/07/11 18:10:55;;;;;;;6.95;2.38;;;;;;;;;;6058712;23;20034;-90
2023/07/11 18:13:29;;;;;;;8.00;2.85;;;;;;;;;;6062557;23;20475;-90
2023/07/11 18:15:57;;;;;;;6.38;2.55;;;;;;;;;;6062557;23;20030;-89
2023/07/11 18:18:25;;;;;;;9.63;2.53;;;;;;;;;;6061931;23;20516;-87
2023/07/11 18:21:00;;;;;;;9.27;2.38;;;;;;;;;;6062223;23;20023;-85
2023/07/11 18:23:28;;;;;;;7.60;2.90;;;;;;;;;;6062663;23;20078;-86
2023/07/11 18:25:57;;;;;;;;;;;;;;;;;;6062395;23;20022;-87
2023/07/11 18:28:32;;;;;;;6.32;2.72;;;;;;;;;;6059834;23;19952;-89
2023/07/11 18:30:59;;;;;;;7.03;2.50;;;;;;;;;;6062842;23;20154;-88
2023/07/11 18:33:33;;;;;;;9.93;2.60;;;;;;;;;;6062937;23;20034;-88
2023/07/11 18:36:16;;;;;;;9.18;3.10;;;;;;;;;;6059017;23;20082;-88
2023/07/11 18:38:50;;;;;;;11.10;2.58;;;;;;;;;;6061087;23;20027;-87
2023/07/11 18:41:18;;;;;;;7.80;2.85;;;;;;;;;;6062377;23;20027;-86
2023/07/11 18:43:52;;;;;;;6.65;2.47;;;;;;;;;;6062015;23;20030;-87
2023/07/11 18:46:19;;;;;;;8.80;2.42;;;;;;;;;;6062667;23;20022;-89
2023/07/11 18:48:47;;;;;;;5.97;2.58;;;;;;;;;;6062331;23;20098;-87
2023/07/11 18:51:21;;;;;;;7.95;2.80;;;;;;;;;;6061007;23;20030;-87
2023/07/11 18:53:48;;;;;;;;;;;;;;;;;;6063829;23;20026;-87
2023/07/11 18:56:22;;;;;;;5.57;2.85;;;;;;;;;;6062666;23;20239;-86
2023/07/11 18:58:49;;;;;;;;;;;;;;;;;;6063955;23;20019;-87
2023/07/11 19:01:16;;;;;;;4.93;2.30;;;;;;;;;;6063463;23;19929;-87
2023/07/11 19:03:51;;;;;;;6.03;2.65;;;;;;;;;;6063526;23;20187;-87
2023/07/11 19:06:18;;;;;;;4.43;2.50;;;;;;;;;;6063955;23;20031;-87
2023/07/11 19:08:45;;;;;;;5.68;2.30;;;;;;;;;;6063446;23;20031;-86
2023/07/11 19:11:20;;;;;;;6.20;2.45;;;;;;;;;;6062883;23;20082;-85
2023/07/11 19:13:47;;;;;;;4.95;2.45;;;;;;;;;;6062731;23;20026;-87
2023/07/11 19:16:24;;;;;;;8.95;2.83;;;;;;;;;;6062880;23;20476;-87
2023/07/11 19:18:52;;;;;;;6.45;2.78;;;;;;;;;;6062128;23;20041;-87
2023/07/11 19:21:19;;;;;;;6.68;2.50;;;;;;;;;;6062281;23;20018;-87
2023/07/11 19:23:53;;;;;;;6.32;2.70;;;;;;;;;;6063127;23;20497;-87
2023/07/11 19:26:21;;;;;;;10.60;2.58;;;;;;;;;;6061884;23;20027;-86
2023/07/11 19:28:48;;;;;;;4.55;2.58;;;;;;;;;;6063678;23;20054;-85
2023/07/11 19:31:22;;;;;;;5.60;2.20;;;;;;;;;;6063967;23;20468;-86
2023/07/11 19:33:49;;;;;;;8.05;2.75;;;;;;;;;;6061812;23;20026;-87
2023/07/11 19:36:30;;;;;;;10.68;2.95;;;;;;;;;;6060369;23;20038;-86
2023/07/11 19:39:05;;;;;;;5.30;2.42;;;;;;;;;;6061810;23;20034;-86
2023/07/11 19:41:39;;;;;;;6.53;2.35;;;;;;;;;;6062261;23;20027;-87
2023/07/11 19:44:06;;;;;;;5.07;2.17;;;;;;;;;;6061644;23;20484;-86
2023/07/11 19:46:33;;;;;;;5.00;2.17;;;;;;;;;;6062732;23;20464;-86
2023/07/11 19:49:09;;;;;;;6.53;2.78;;;;;;;;;;6061586;23;20351;-86
2023/07/11 19:51:36;;;;;;;7.20;2.50;;;;;;;;;;6062359;23;20067;-86
2023/07/11 19:54:10;;;;;;;6.35;2.67;;;;;;;;;;6063493;23;20397;-87
2023/07/11 19:56:37;;;;;;;11.43;3.03;;;;;;;;;;6062152;23;20027;-87
2023/07/11 19:59:04;;;;;;;6.53;2.70;;;;;;;;;;6063734;23;20088;-88
2023/07/11 20:01:38;;;;;;;7.82;2.92;;;;;;;;;;6063549;23;20078;-87
2023/07/11 20:04:05;;;;;;;11.07;2.70;;;;;;;;;;6063836;23;20015;-86
2023/07/11 20:06:39;;;;;;;6.88;2.58;;;;;;;;;;6062753;23;20074;-85
2023/07/11 20:09:08;;;;;;;5.88;2.70;;;;;;;;;;6062101;23;20030;-86
2023/07/11 20:11:43;;;;;;;7.82;2.50;;;;;;;;;;6061601;23;20485;-86
2023/07/11 20:14:10;;;;;;;6.07;2.92;;;;;;;;;;6061143;23;20026;-87
2023/07/11 20:16:37;;;;;;;3.08;2.15;;;;;;;;;;6061412;23;20027;-86
2023/07/11 20:19:13;;;;;;;5.70;2.65;;;;;;;;;;6062848;23;20019;-86
2023/07/11 20:21:40;;;;;;;7.10;2.65;;;;;;;;;;6060775;23;20062;-88
2023/07/11 20:24:07;;;;;;;;;;;;;;;;;;6064097;23;20528;-87
2023/07/11 20:26:42;;;;;;;4.72;2.83;;;;;;;;;;6062931;23;19921;-86
2023/07/11 20:29:10;;;;;;;8.68;3.15;;;;;;;;;;6060021;23;20083;-86
2023/07/11 20:31:44;;;;;;;9.38;3.00;;;;;;;;;;6062870;23;20026;-85
2023/07/11 20:34:11;;;;;;;6.80;3.10;;;;;;;;;;6060950;23;20022;-87
2023/07/11 20:36:38;;;;;;;9.52;3.05;;;;;;;;;;6059873;23;20364;-86
2023/07/11 20:39:14;;;;;;;6.15;2.80;;;;;;;;;;6063500;23;20034;-87
2023/07/11 20:41:41;;;;;;;9.32;3.00;;;;;;;;;;6061741;23;20684;-87
2023/07/11 20:44:16;;;;;;;10.90;3.28;;;;;;;;;;6063357;23;20508;-87